Terminal Aerodrome Forecast
Issued by NWS

Home | Current Version | Previous Version | Text Only | Print | Product List | Glossary On
Versions: 1 2 3 4 5 6 7 8 9 10 11 12 13 14 15 16
000
FTUS41 KBOX 260407 AAB
TAFHYA
TAF AMD
KHYA 260407Z 2604/2624 16008G18KT 4SM -SHRA BR OVC002 WS020/17055KT
     FM260600 17015KT 1/2SM -SHRA FG OVC002 WS020/17050KT
     FM261000 19009KT 1/2SM FG VCSH OVC003
     FM261200 21010KT 3/4SM BR OVC008
     FM261400 22011KT P6SM BKN008
     FM261700 22013KT P6SM SCT025
     FM262100 23016G27KT P6SM SKC
     FM262300 24014KT P6SM SKC=

USA.gov is the U.S. government's official web portal to all federal, state and local government web resources and services.